createdAt,value
2022-08-26T00:00:35.305Z,23.00
2022-08-26T00:03:09.704Z,22.90
2022-08-26T00:05:42.263Z,22.90
2022-08-26T00:08:15.953Z,22.90
2022-08-26T00:10:48.413Z,22.80
2022-08-26T00:13:20.972Z,22.80
2022-08-26T00:15:53.571Z,22.80
2022-08-26T00:18:27.355Z,22.80
2022-08-26T00:21:06.189Z,22.70
2022-08-26T00:23:38.862Z,22.60
2022-08-26T00:26:11.011Z,22.60
2022-08-26T00:28:43.101Z,22.60
2022-08-26T00:31:14.989Z,22.50
2022-08-26T00:33:48.178Z,22.50
2022-08-26T00:36:21.705Z,22.50
2022-08-26T00:38:53.581Z,22.40
2022-08-26T00:41:25.757Z,22.40
2022-08-26T00:43:57.643Z,22.40
2022-08-26T00:46:35.173Z,22.30
2022-08-26T00:49:14.046Z,22.20
2022-08-26T00:51:50.769Z,22.20
2022-08-26T00:54:27.012Z,22.10
2022-08-26T00:57:02.460Z,22.10
2022-08-26T00:59:36.286Z,22.10
2022-08-26T01:02:20.764Z,22.10
2022-08-26T01:04:58.844Z,22.10
2022-08-26T01:07:33.298Z,22.00
2022-08-26T01:10:10.732Z,22.00
2022-08-26T01:12:47.557Z,22.00
2022-08-26T01:15:23.986Z,21.90
2022-08-26T01:17:55.893Z,21.90
2022-08-26T01:20:36.266Z,21.90
2022-08-26T01:23:10.846Z,21.80
2022-08-26T01:25:46.079Z,21.80
2022-08-26T01:28:21.751Z,21.70
2022-08-26T01:30:54.892Z,21.70
2022-08-26T01:33:42.077Z,21.70
2022-08-26T01:36:15.192Z,21.70
2022-08-26T01:38:48.926Z,21.60
2022-08-26T01:41:27.178Z,21.60
2022-08-26T01:44:03.199Z,21.50
2022-08-26T01:46:35.824Z,21.40
2022-08-26T01:49:08.637Z,21.40
2022-08-26T01:51:44.355Z,21.40
2022-08-26T01:54:17.938Z,21.40
2022-08-26T01:56:53.771Z,21.40
2022-08-26T01:59:25.972Z,21.40
2022-08-26T02:01:58.107Z,21.30
2022-08-26T02:04:33.619Z,21.40
2022-08-26T02:07:08.749Z,21.30
2022-08-26T02:09:42.811Z,21.30
2022-08-26T02:12:17.074Z,21.30
2022-08-26T02:14:53.274Z,21.30
2022-08-26T02:17:29.336Z,21.20
2022-08-26T02:20:03.372Z,21.20
2022-08-26T02:22:35.920Z,21.10
2022-08-26T02:25:14.028Z,21.10
2022-08-26T02:27:48.315Z,21.10
2022-08-26T02:30:23.066Z,21.10
2022-08-26T02:32:58.308Z,21.10
2022-08-26T02:35:31.139Z,21.10
2022-08-26T02:38:10.169Z,21.00
2022-08-26T02:43:31.198Z,20.90
2022-08-26T02:46:03.100Z,20.90
2022-08-26T02:48:34.938Z,20.90
2022-08-26T02:51:07.749Z,21.00
2022-08-26T02:53:39.550Z,20.90
2022-08-26T02:56:12.665Z,20.90
2022-08-26T02:58:44.540Z,20.90
2022-08-26T03:01:22.057Z,20.90
2022-08-26T03:03:54.250Z,20.90
2022-08-26T03:06:26.266Z,20.90
2022-08-26T03:08:58.294Z,20.90
2022-08-26T03:11:33.138Z,20.90
2022-08-26T03:14:05.664Z,20.80
2022-08-26T03:16:37.979Z,20.80
2022-08-26T03:19:11.380Z,20.80
2022-08-26T03:21:44.010Z,20.80
2022-08-26T03:24:17.533Z,20.80
2022-08-26T03:26:52.698Z,20.80
2022-08-26T03:29:43.506Z,20.70
2022-08-26T03:32:16.825Z,20.70
2022-08-26T03:34:48.497Z,20.70
2022-08-26T03:37:21.520Z,20.70
2022-08-26T03:39:53.531Z,20.60
2022-08-26T03:42:27.285Z,20.60
2022-08-26T03:44:59.291Z,20.60
2022-08-26T03:47:31.855Z,20.60
2022-08-26T03:50:05.382Z,20.60
2022-08-26T03:52:39.707Z,20.50
2022-08-26T03:55:16.468Z,20.50
2022-08-26T03:57:50.821Z,20.40
2022-08-26T04:00:23.071Z,20.40
2022-08-26T04:02:56.276Z,20.40
2022-08-26T04:05:28.358Z,20.30
2022-08-26T04:08:00.292Z,20.30
2022-08-26T04:10:32.330Z,20.30
2022-08-26T04:13:05.523Z,20.30
2022-08-26T04:15:39.285Z,20.30
2022-08-26T04:18:11.143Z,20.30
2022-08-26T04:20:43.022Z,20.20
2022-08-26T04:23:16.746Z,20.20
2022-08-26T04:25:49.149Z,20.20
2022-08-26T04:28:22.940Z,20.20
2022-08-26T04:30:54.684Z,20.10
2022-08-26T04:33:32.540Z,20.10
2022-08-26T04:36:05.884Z,20.10
2022-08-26T04:38:38.929Z,20.10
2022-08-26T04:41:15.263Z,20.00
2022-08-26T04:43:50.341Z,20.00
2022-08-26T04:46:24.454Z,20.00
2022-08-26T04:48:56.184Z,19.90
2022-08-26T04:51:28.345Z,19.90
2022-08-26T04:54:00.191Z,19.90
2022-08-26T04:56:37.209Z,19.90
2022-08-26T04:59:16.576Z,19.90
2022-08-26T05:01:52.113Z,19.80
2022-08-26T05:04:24.017Z,19.90
2022-08-26T05:07:02.284Z,19.80
2022-08-26T05:09:34.840Z,19.90
2022-08-26T05:12:07.304Z,19.90
2022-08-26T05:14:41.529Z,19.90
2022-08-26T05:17:15.175Z,19.90
2022-08-26T05:19:47.291Z,20.00
2022-08-26T05:22:20.111Z,20.00
2022-08-26T05:24:52.253Z,20.00
2022-08-26T05:27:24.392Z,20.10
2022-08-26T05:29:58.207Z,20.10
2022-08-26T05:32:29.999Z,20.10
2022-08-26T05:35:01.992Z,20.20
2022-08-26T05:37:34.599Z,20.20
2022-08-26T05:40:08.154Z,20.20
2022-08-26T05:42:40.278Z,20.30
2022-08-26T05:45:13.766Z,20.30
2022-08-26T05:47:46.026Z,20.40
2022-08-26T05:50:23.237Z,20.40
2022-08-26T05:52:55.561Z,20.50
2022-08-26T05:55:27.453Z,20.50
2022-08-26T05:57:59.473Z,20.60
2022-08-26T06:00:35.970Z,20.60
2022-08-26T06:03:11.413Z,20.70
2022-08-26T06:05:43.296Z,20.70
2022-08-26T06:08:19.158Z,20.80
2022-08-26T06:10:54.041Z,20.90
2022-08-26T06:13:27.338Z,21.00
2022-08-26T06:16:07.524Z,21.00
2022-08-26T06:18:43.514Z,21.10
2022-08-26T06:21:17.349Z,21.20
2022-08-26T06:24:09.631Z,21.30
2022-08-26T06:26:46.860Z,21.30
2022-08-26T06:29:25.764Z,21.40
2022-08-26T06:32:01.179Z,21.50
2022-08-26T06:34:33.808Z,21.60
2022-08-26T06:37:06.645Z,21.70
2022-08-26T06:39:40.091Z,21.80
2022-08-26T06:42:12.079Z,21.90
2022-08-26T06:44:44.697Z,22.00
2022-08-26T06:47:18.005Z,22.10
2022-08-26T06:49:50.362Z,22.10
2022-08-26T06:52:24.379Z,22.30
2022-08-26T06:54:56.514Z,22.60
2022-08-26T06:57:28.613Z,22.30
2022-08-26T07:00:06.347Z,22.40
2022-08-26T07:02:39.690Z,22.40
2022-08-26T07:05:11.546Z,22.50
2022-08-26T07:07:43.405Z,22.60
2022-08-26T07:10:15.680Z,22.60
2022-08-26T07:12:48.975Z,22.70
2022-08-26T07:15:23.854Z,22.70
2022-08-26T07:18:00.355Z,22.80
2022-08-26T07:20:32.131Z,22.80
2022-08-26T07:23:04.065Z,22.90
2022-08-26T07:25:38.735Z,23.00
2022-08-26T07:28:10.824Z,23.00
2022-08-26T07:30:42.684Z,23.10
2022-08-26T07:33:17.705Z,23.10
2022-08-26T07:35:49.592Z,23.20
2022-08-26T07:38:21.416Z,23.20
2022-08-26T07:40:53.207Z,23.30
2022-08-26T07:43:25.168Z,23.30
2022-08-26T07:45:57.729Z,23.30
2022-08-26T07:48:31.255Z,23.40
2022-08-26T07:51:06.216Z,23.40
2022-08-26T07:53:39.787Z,23.40
2022-08-26T07:56:11.631Z,23.50
2022-08-26T07:58:45.728Z,23.50
2022-08-26T08:01:20.353Z,23.60
2022-08-26T08:03:54.232Z,23.60
2022-08-26T08:06:27.511Z,23.70
2022-08-26T08:09:00.916Z,23.70
2022-08-26T08:11:33.549Z,23.70
2022-08-26T08:14:08.242Z,23.80
2022-08-26T08:16:46.050Z,23.90
2022-08-26T08:19:20.046Z,23.90
2022-08-26T08:21:53.622Z,23.90
2022-08-26T08:24:26.644Z,23.90
2022-08-26T08:26:58.946Z,24.00
2022-08-26T08:29:31.254Z,24.10
2022-08-26T08:32:04.965Z,24.10
2022-08-26T08:34:38.270Z,24.20
2022-08-26T08:37:10.871Z,24.30
2022-08-26T08:39:42.814Z,24.40
2022-08-26T08:42:39.011Z,24.40
2022-08-26T08:45:13.811Z,24.50
2022-08-26T08:47:50.338Z,24.60
2022-08-26T08:50:30.426Z,24.70
2022-08-26T08:53:10.376Z,24.80
2022-08-26T08:55:56.497Z,24.90
2022-08-26T08:58:42.090Z,25.00
2022-08-26T09:01:24.582Z,25.10
2022-08-26T09:04:21.746Z,25.20
2022-08-26T09:09:38.325Z,25.50
2022-08-26T09:12:16.709Z,25.60
2022-08-26T09:14:56.669Z,25.70
2022-08-26T09:17:42.938Z,25.90
2022-08-26T09:20:34.855Z,26.10
2022-08-26T09:23:11.030Z,26.20
2022-08-26T09:25:48.960Z,26.30
2022-08-26T09:28:23.624Z,26.40
2022-08-26T09:31:07.945Z,26.60
2022-08-26T09:33:43.314Z,26.70
2022-08-26T09:36:22.591Z,26.90
2022-08-26T09:38:55.816Z,27.10
2022-08-26T09:41:32.469Z,27.20
2022-08-26T09:44:14.467Z,27.30
2022-08-26T09:46:55.194Z,27.40
2022-08-26T09:49:35.599Z,27.60
2022-08-26T09:52:15.726Z,27.60
2022-08-26T09:55:02.237Z,27.80
2022-08-26T09:57:36.569Z,27.90
2022-08-26T10:00:27.893Z,28.00
2022-08-26T10:03:01.774Z,28.10
2022-08-26T10:05:40.541Z,28.20
2022-08-26T10:08:25.854Z,28.20
2022-08-26T10:11:01.489Z,28.30
2022-08-26T10:13:36.357Z,28.40
2022-08-26T10:16:14.969Z,28.40
2022-08-26T10:18:56.775Z,28.50
2022-08-26T10:21:35.925Z,28.60
2022-08-26T10:24:11.455Z,28.60
2022-08-26T10:26:49.310Z,28.70
2022-08-26T10:29:26.043Z,28.70
2022-08-26T10:32:02.664Z,28.90
2022-08-26T10:34:35.666Z,28.90
2022-08-26T10:37:14.327Z,28.90
2022-08-26T10:39:56.997Z,29.00
2022-08-26T10:42:37.514Z,29.00
2022-08-26T10:45:15.016Z,29.10
2022-08-26T10:47:51.626Z,29.10
2022-08-26T10:50:27.336Z,29.20
2022-08-26T10:53:07.624Z,29.30
2022-08-26T10:55:48.167Z,29.30
2022-08-26T10:58:41.754Z,29.40
2022-08-26T11:01:40.665Z,29.40
2022-08-26T11:04:23.216Z,29.50
2022-08-26T11:07:31.859Z,29.60
2022-08-26T11:10:07.480Z,29.70
2022-08-26T11:12:54.850Z,29.70
2022-08-26T11:16:08.196Z,29.80
2022-08-26T11:18:46.799Z,29.90
2022-08-26T11:21:44.215Z,30.10
2022-08-26T11:24:45.091Z,30.10
2022-08-26T11:28:02.611Z,30.20
2022-08-26T11:30:42.640Z,30.40
2022-08-26T11:33:51.003Z,30.50
2022-08-26T11:36:43.222Z,30.60
2022-08-26T11:39:20.244Z,30.70
2022-08-26T11:41:55.463Z,30.80
2022-08-26T11:44:38.932Z,31.00
2022-08-26T11:47:15.062Z,31.20
2022-08-26T11:49:48.852Z,31.40
2022-08-26T11:52:22.623Z,31.40
2022-08-26T11:55:01.650Z,31.40
2022-08-26T11:57:35.522Z,31.40
2022-08-26T12:00:14.196Z,31.30
2022-08-26T12:02:46.229Z,31.20
2022-08-26T12:05:24.042Z,31.10
2022-08-26T12:08:06.265Z,30.90
2022-08-26T12:10:38.593Z,30.80
2022-08-26T12:13:21.182Z,30.70
2022-08-26T12:15:55.993Z,30.60
2022-08-26T12:18:31.692Z,30.50
2022-08-26T12:21:13.757Z,30.60
2022-08-26T12:23:50.062Z,30.60
2022-08-26T12:26:25.198Z,30.60
2022-08-26T12:28:59.161Z,31.00
2022-08-26T12:31:33.837Z,31.70
2022-08-26T12:34:17.678Z,32.20
2022-08-26T12:36:56.297Z,32.80
2022-08-26T12:39:38.238Z,33.20
2022-08-26T12:42:24.139Z,33.30
2022-08-26T12:45:00.547Z,33.30
2022-08-26T12:47:42.925Z,33.20
2022-08-26T12:50:18.515Z,33.00
2022-08-26T12:52:58.738Z,33.00
2022-08-26T12:55:42.319Z,32.90
2022-08-26T12:58:26.561Z,32.70
2022-08-26T13:01:24.898Z,32.60
2022-08-26T13:03:56.760Z,32.40
2022-08-26T13:06:34.169Z,32.30
2022-08-26T13:09:31.314Z,32.20
2022-08-26T13:12:03.438Z,32.10
2022-08-26T13:14:35.307Z,32.00
2022-08-26T13:17:07.161Z,32.00
2022-08-26T13:19:38.962Z,32.10
2022-08-26T13:22:13.084Z,32.20
2022-08-26T13:24:46.397Z,32.30
2022-08-26T13:27:20.504Z,32.60
2022-08-26T13:29:52.947Z,33.00
2022-08-26T13:32:25.564Z,33.50
2022-08-26T13:34:59.716Z,34.10
2022-08-26T13:37:34.365Z,34.70
2022-08-26T13:40:10.070Z,35.20
2022-08-26T13:42:49.602Z,35.80
2022-08-26T13:45:21.324Z,36.40
2022-08-26T13:47:53.229Z,37.00
2022-08-26T13:50:25.015Z,37.50
2022-08-26T13:52:57.072Z,37.90
2022-08-26T13:55:30.293Z,38.20
2022-08-26T13:58:02.067Z,38.50
2022-08-26T14:00:34.052Z,38.80
2022-08-26T14:03:09.205Z,39.00
2022-08-26T14:05:44.502Z,39.20
2022-08-26T14:08:16.767Z,39.40
2022-08-26T14:10:50.313Z,39.60
2022-08-26T14:13:22.546Z,39.80
2022-08-26T14:15:54.292Z,40.00
2022-08-26T14:18:28.649Z,40.10
2022-08-26T14:21:00.500Z,40.30
2022-08-26T14:23:32.611Z,40.40
2022-08-26T14:26:08.281Z,40.60
2022-08-26T14:28:40.386Z,40.70
2022-08-26T14:31:12.541Z,40.80
2022-08-26T14:33:44.579Z,40.80
2022-08-26T14:36:42.736Z,40.70
2022-08-26T14:39:14.715Z,40.80
2022-08-26T14:41:53.733Z,40.70
2022-08-26T14:44:33.377Z,40.90
2022-08-26T14:47:06.605Z,40.90
2022-08-26T14:49:38.427Z,40.90
2022-08-26T14:52:10.303Z,40.90
2022-08-26T14:54:42.102Z,41.00
2022-08-26T14:57:15.446Z,41.10
2022-08-26T14:59:50.489Z,41.00
2022-08-26T15:02:33.556Z,40.90
2022-08-26T15:05:08.458Z,40.90
2022-08-26T15:07:40.705Z,40.70
2022-08-26T15:10:13.917Z,40.60
2022-08-26T15:12:47.524Z,40.40
2022-08-26T15:15:19.475Z,40.30
2022-08-26T15:17:51.330Z,40.00
2022-08-26T15:20:23.301Z,39.80
2022-08-26T15:22:55.147Z,39.50
2022-08-26T15:25:27.569Z,39.20
2022-08-26T15:28:00.759Z,38.90
2022-08-26T15:30:33.734Z,38.50
2022-08-26T15:33:05.549Z,38.20
2022-08-26T15:35:46.885Z,37.80
2022-08-26T15:38:18.673Z,37.50
2022-08-26T15:40:50.441Z,37.20
2022-08-26T15:43:29.017Z,36.90
2022-08-26T15:46:01.325Z,36.60
2022-08-26T15:48:33.271Z,36.40
2022-08-26T15:51:06.678Z,36.10
2022-08-26T15:53:38.467Z,35.80
2022-08-26T15:56:10.269Z,35.60
2022-08-26T15:58:43.712Z,35.40
2022-08-26T16:01:27.424Z,35.20
2022-08-26T16:04:00.552Z,35.00
2022-08-26T16:06:35.086Z,34.80
2022-08-26T16:09:07.949Z,34.60
2022-08-26T16:11:39.818Z,34.50
2022-08-26T16:14:12.921Z,34.30
2022-08-26T16:16:45.111Z,33.90
2022-08-26T16:19:17.137Z,33.30
2022-08-26T16:21:51.185Z,32.70
2022-08-26T16:24:27.169Z,32.30
2022-08-26T16:27:02.221Z,31.80
2022-08-26T16:29:38.093Z,31.10
2022-08-26T16:32:09.872Z,30.50
2022-08-26T16:34:56.131Z,30.10
2022-08-26T16:37:28.430Z,29.60
2022-08-26T16:40:00.621Z,29.30
2022-08-26T16:42:32.618Z,28.90
2022-08-26T16:45:06.795Z,28.60
2022-08-26T16:47:38.876Z,28.30
2022-08-26T16:50:12.789Z,28.10
2022-08-26T16:52:44.787Z,27.80
2022-08-26T16:55:17.037Z,27.60
2022-08-26T16:57:49.729Z,27.30
2022-08-26T17:00:27.700Z,27.00
2022-08-26T17:03:00.951Z,26.70
2022-08-26T17:05:32.992Z,26.50
2022-08-26T17:08:05.780Z,26.20
2022-08-26T17:10:37.719Z,26.00
2022-08-26T17:13:09.684Z,25.80
2022-08-26T17:15:45.283Z,25.60
2022-08-26T17:18:17.111Z,25.50
2022-08-26T17:20:49.385Z,25.30
2022-08-26T17:23:22.151Z,25.20
2022-08-26T17:25:53.914Z,25.20
2022-08-26T17:28:25.758Z,25.20
2022-08-26T17:30:59.275Z,25.20
2022-08-26T17:33:31.425Z,25.20
2022-08-26T17:36:04.180Z,25.10
2022-08-26T17:38:36.557Z,25.10
2022-08-26T17:41:09.708Z,25.20
2022-08-26T17:43:41.553Z,25.20
2022-08-26T17:46:14.787Z,25.20
2022-08-26T17:48:48.257Z,25.20
2022-08-26T17:51:20.911Z,25.30
2022-08-26T17:53:52.845Z,25.10
2022-08-26T17:56:27.109Z,24.90
2022-08-26T17:59:02.515Z,24.70
2022-08-26T18:01:37.457Z,24.50
2022-08-26T18:04:10.092Z,24.40
2022-08-26T18:06:43.323Z,24.30
2022-08-26T18:09:14.940Z,24.20
2022-08-26T18:11:46.730Z,24.10
2022-08-26T18:14:18.565Z,24.00
2022-08-26T18:16:51.733Z,24.00
2022-08-26T18:19:23.508Z,23.90
2022-08-26T18:21:55.552Z,23.90
2022-08-26T18:24:30.334Z,23.90
2022-08-26T18:27:02.201Z,23.80
2022-08-26T18:29:34.202Z,23.80
2022-08-26T18:32:08.560Z,23.80
2022-08-26T18:34:40.421Z,23.70
2022-08-26T18:39:50.693Z,23.70
2022-08-26T18:42:24.026Z,23.70
2022-08-26T18:44:55.844Z,23.60
2022-08-26T18:47:30.025Z,23.60
2022-08-26T18:50:02.257Z,23.50
2022-08-26T18:52:34.085Z,23.50
2022-08-26T18:55:06.588Z,23.50
2022-08-26T18:57:38.421Z,23.50
2022-08-26T19:00:11.563Z,23.40
2022-08-26T19:02:52.149Z,23.40
2022-08-26T19:05:25.430Z,23.40
2022-08-26T19:07:57.317Z,23.40
2022-08-26T19:10:30.133Z,23.40
2022-08-26T19:13:06.100Z,23.40
2022-08-26T19:15:40.193Z,23.40
2022-08-26T19:18:14.729Z,23.30
2022-08-26T19:20:47.806Z,23.30
2022-08-26T19:23:31.339Z,23.30
2022-08-26T19:26:05.223Z,23.30
2022-08-26T19:28:40.705Z,23.30
2022-08-26T19:31:12.660Z,23.20
2022-08-26T19:33:45.910Z,23.00
2022-08-26T19:36:21.671Z,23.00
2022-08-26T19:38:54.376Z,22.90
2022-08-26T19:41:37.106Z,22.90
2022-08-26T19:44:12.976Z,22.90
2022-08-26T19:46:47.944Z,22.80
2022-08-26T19:49:21.068Z,22.90
2022-08-26T19:51:54.128Z,22.90
2022-08-26T19:54:27.107Z,22.80
2022-08-26T19:56:58.923Z,22.80
2022-08-26T19:59:32.956Z,22.90
2022-08-26T20:02:10.027Z,22.90
2022-08-26T20:04:44.658Z,22.90
2022-08-26T20:07:18.892Z,22.90
2022-08-26T20:09:51.263Z,22.90
2022-08-26T20:12:24.809Z,22.90
2022-08-26T20:14:56.642Z,22.90
2022-08-26T20:17:28.536Z,22.90
2022-08-26T20:20:28.503Z,23.00
2022-08-26T20:23:05.527Z,22.90
2022-08-26T20:25:37.621Z,22.90
2022-08-26T20:28:09.906Z,22.90
2022-08-26T20:30:41.850Z,22.90
2022-08-26T20:33:13.666Z,22.90
2022-08-26T20:35:47.001Z,22.90
2022-08-26T20:38:21.558Z,22.90
2022-08-26T20:40:54.177Z,22.90
2022-08-26T20:43:28.261Z,22.90
2022-08-26T20:46:00.565Z,22.80
2022-08-26T20:48:32.419Z,22.90
2022-08-26T20:51:07.040Z,22.90
2022-08-26T20:53:38.984Z,22.90
2022-08-26T20:56:12.662Z,22.80
2022-08-26T20:58:44.454Z,22.70
2022-08-26T21:01:19.334Z,22.70
2022-08-26T21:03:52.357Z,22.50
2022-08-26T21:06:25.697Z,22.40
2022-08-26T21:08:58.391Z,22.30
2022-08-26T21:11:30.745Z,22.30
2022-08-26T21:14:06.893Z,22.30
2022-08-26T21:16:48.319Z,22.30
2022-08-26T21:19:20.204Z,22.40
2022-08-26T21:21:53.496Z,22.40
2022-08-26T21:24:25.153Z,22.40
2022-08-26T21:26:56.930Z,22.40
2022-08-26T21:29:28.778Z,22.40
2022-08-26T21:32:00.637Z,22.30
2022-08-26T21:34:32.509Z,22.40
2022-08-26T21:37:08.954Z,22.40
2022-08-26T21:39:48.322Z,22.40
2022-08-26T21:42:20.442Z,22.30
2022-08-26T21:44:53.366Z,22.30
2022-08-26T21:47:25.720Z,22.30
2022-08-26T21:49:57.556Z,22.30
2022-08-26T21:52:30.790Z,22.30
2022-08-26T21:55:04.299Z,22.30
2022-08-26T21:57:40.952Z,22.30
2022-08-26T22:00:15.677Z,22.40
2022-08-26T22:02:50.105Z,22.40
2022-08-26T22:05:21.933Z,22.40
2022-08-26T22:07:55.287Z,22.40
2022-08-26T22:10:26.910Z,22.40
2022-08-26T22:12:58.679Z,22.40
2022-08-26T22:15:32.962Z,22.40
2022-08-26T22:18:06.066Z,22.30
2022-08-26T22:20:37.867Z,22.20
2022-08-26T22:23:11.009Z,22.10
2022-08-26T22:25:42.771Z,22.10
2022-08-26T22:28:15.248Z,22.20
2022-08-26T22:30:47.382Z,22.50
2022-08-26T22:33:19.637Z,22.80
2022-08-26T22:35:52.815Z,23.20
2022-08-26T22:38:26.176Z,23.50
2022-08-26T22:41:00.158Z,23.80
2022-08-26T22:43:31.947Z,23.90
2022-08-26T22:46:04.312Z,24.10
2022-08-26T22:48:37.960Z,24.40
2022-08-26T22:51:09.795Z,24.60
2022-08-26T22:53:45.173Z,24.80
2022-08-26T22:56:19.022Z,25.00
2022-08-26T22:58:50.888Z,25.20
2022-08-26T23:01:22.835Z,25.40
2022-08-26T23:03:54.705Z,25.60
2022-08-26T23:06:26.543Z,25.80
2022-08-26T23:08:59.690Z,25.90
2022-08-26T23:11:31.903Z,25.90
2022-08-26T23:14:05.089Z,25.90
2022-08-26T23:16:41.631Z,25.80
2022-08-26T23:19:15.430Z,25.70
2022-08-26T23:21:48.041Z,25.50
2022-08-26T23:24:21.351Z,25.20
2022-08-26T23:26:53.053Z,24.90
2022-08-26T23:29:24.845Z,24.70
2022-08-26T23:31:56.712Z,24.40
2022-08-26T23:34:47.286Z,24.20
2022-08-26T23:37:20.378Z,23.90
2022-08-26T23:39:54.970Z,23.60
2022-08-26T23:42:26.889Z,23.40
2022-08-26T23:45:01.617Z,23.20
2022-08-26T23:47:33.697Z,23.00
2022-08-26T23:50:07.057Z,22.80
2022-08-26T23:52:57.160Z,22.60
2022-08-26T23:55:31.487Z,22.40
2022-08-26T23:58:03.954Z,22.30
